»·PEaware :: N162CD KSMX-KBFL

N162CD :: KSMX-KBFL

FLIGHT INFORMATION

Flight Status: Arrived
Operator: Privately registered:
United States
More flights under this callsign
Pilot: Seth H. (6069)
Aircraft: CIRRUS SR-22
(SR22)
More flights by this aircraft type
Origin: KSMX Santa Maria Pub/Capt Hancock
United States
Destination: KBFL Meadows
United States
More flights between these airports :: More routes between these airports
Route: +
File this flight plan on PilotEdge
Remarks: c5
Altitude:
(Current/Filed)
0ft
Speed:
(Current/Filed)
0kts
Departed: 11-Jan-18 03:06 PM
Arrived: 11-Jan-18 03:51 PM
Distance/Time
Traveled:
76nm/0:45
Distance/Time
To Go:
Arrived

Flight Plot

Page will automatically refresh every two minutes.


Map Options




Map Legend


Flown Route
Filed Route
Departure Airport
Arrival Airport
Navaid (VOR, NDB)
Fix

Horizontal Profiles

Position Reports

Time Latitude Longitude Heading Altitude Ground
Speed
11-Jan-18 15:02 34.891808 -120.455275 0 264ft 0kts
11-Jan-18 15:03 34.892301 -120.454857 66 264ft 16kts
11-Jan-18 15:04 34.891639 -120.452395 120 264ft 12kts
11-Jan-18 15:05 34.891482 -120.450226 90 264ft 19kts
11-Jan-18 15:06 34.891665 -120.446391 49 264ft 10kts
11-Jan-18 15:07 34.891691 -120.446358 45 264ft 0kts
11-Jan-18 15:08 34.891691 -120.446358 45 264ft 0kts
11-Jan-18 15:09 34.891691 -120.446358 45 264ft 0kts
11-Jan-18 15:10 34.891691 -120.446358 45 264ft 0kts
11-Jan-18 15:11 34.892554 -120.445657 349 264ft 16kts
11-Jan-18 15:12 34.903723 -120.452476 9 862ft 92kts
11-Jan-18 15:13 34.917246 -120.422376 64 1912ft 140kts
11-Jan-18 15:14 34.926160 -120.395642 62 2819ft 144kts
11-Jan-18 15:15 34.937042 -120.365723 60 3827ft 147kts
11-Jan-18 15:16 34.945888 -120.341285 52 5735ft 76kts
11-Jan-18 15:17 34.954401 -120.321161 56 6368ft 138kts
11-Jan-18 15:18 34.969007 -120.283845 58 7195ft 164kts
11-Jan-18 15:19 34.984258 -120.244554 58 7762ft 181kts
11-Jan-18 15:20 35.001248 -120.201196 59 7763ft 197kts
11-Jan-18 15:21 35.017636 -120.159259 60 7758ft 192kts
11-Jan-18 15:22 35.035608 -120.113319 60 7759ft 189kts
11-Jan-18 15:23 35.052375 -120.070460 61 7758ft 189kts
11-Jan-18 15:24 35.070883 -120.023037 61 7758ft 190kts
11-Jan-18 15:25 35.086052 -119.984110 61 7758ft 190kts
11-Jan-18 15:26 35.104266 -119.937310 61 7759ft 190kts
11-Jan-18 15:27 35.121701 -119.892537 61 7759ft 190kts
11-Jan-18 15:28 35.142703 -119.838560 61 7758ft 190kts
11-Jan-18 15:29 35.165088 -119.780940 62 7757ft 190kts
11-Jan-18 15:30 35.187435 -119.723394 63 7768ft 191kts
11-Jan-18 15:31 35.208832 -119.668226 65 7793ft 191kts
11-Jan-18 15:32 35.221781 -119.633448 60 7805ft 149kts
11-Jan-18 15:33 35.234923 -119.599746 59 7496ft 152kts
11-Jan-18 15:34 35.245742 -119.571970 59 7240ft 151kts
11-Jan-18 15:35 35.258014 -119.540198 59 6921ft 147kts
11-Jan-18 15:36 35.268596 -119.512754 59 6629ft 144kts
11-Jan-18 15:37 35.280067 -119.483071 60 6206ft 150kts
11-Jan-18 15:38 35.292274 -119.451474 61 5420ft 158kts
11-Jan-18 15:39 35.304513 -119.419582 61 4576ft 152kts
11-Jan-18 15:40 35.317450 -119.385824 62 3603ft 148kts
11-Jan-18 15:41 35.330319 -119.352201 63 2619ft 144kts
11-Jan-18 15:42 35.342529 -119.320145 63 2526ft 98kts
11-Jan-18 15:43 35.356940 -119.282340 64 2532ft 135kts
11-Jan-18 15:44 35.372491 -119.241489 63 2524ft 120kts
11-Jan-18 15:45 35.382407 -119.215469 63 2527ft 95kts
11-Jan-18 15:46 35.392810 -119.188218 63 2532ft 102kts
11-Jan-18 15:47 35.405346 -119.155329 64 2163ft 115kts
11-Jan-18 15:48 35.414001 -119.121976 77 1550ft 111kts
11-Jan-18 15:49 35.413596 -119.094927 128 1595ft 94kts
11-Jan-18 15:50 35.403466 -119.075284 100 1614ft 114kts
11-Jan-18 15:51 35.413990 -119.048207 52 1596ft 119kts
11-Jan-18 15:52 35.427643 -119.028349 50 1517ft 126kts
11-Jan-18 15:53 35.428950 -119.004054 142 1525ft 80kts
11-Jan-18 15:54 35.418081 -119.011501 242 1250ft 88kts
11-Jan-18 15:55 35.417608 -119.031761 290 879ft 88kts
11-Jan-18 15:56 35.426633 -119.047398 315 665ft 79kts
11-Jan-18 15:57 35.435038 -119.057549 317 509ft 26kts
11-Jan-18 15:58 35.436254 -119.057749 62 509ft 0kts
11-Jan-18 15:59 35.435673 -119.056173 137 509ft 29kts

Navigation Log

Ident Type
1. KSMX Airport
2. KBFL Airport